createdAt,value
2018-12-27T00:05:14.768Z,-1.08
2018-12-27T00:08:02.482Z,-1.03
2018-12-27T00:10:50.284Z,-1.06
2018-12-27T00:13:37.991Z,-1.02
2018-12-27T00:16:25.738Z,-1.10
2018-12-27T00:21:28.344Z,-1.06
2018-12-27T00:24:16.029Z,-0.94
2018-12-27T00:27:03.704Z,-0.93
2018-12-27T00:32:06.396Z,-1.05
2018-12-27T00:34:54.239Z,-0.80
2018-12-27T00:37:42.211Z,-1.12
2018-12-27T00:40:31.817Z,-1.18
2018-12-27T00:43:19.579Z,-1.42
2018-12-27T00:48:22.747Z,-1.63
2018-12-27T00:50:51.437Z,-1.63
2018-12-27T00:53:20.061Z,-1.69
2018-12-27T00:55:48.684Z,-1.53
2018-12-27T00:58:17.357Z,-1.41
2018-12-27T01:00:45.974Z,-1.41
2018-12-27T01:03:33.815Z,-1.18
2018-12-27T01:06:02.508Z,-1.22
2018-12-27T01:08:31.172Z,-1.23
2018-12-27T01:11:19.057Z,-1.16
2018-12-27T01:13:47.776Z,-1.25
2018-12-27T01:16:16.416Z,-1.23
2018-12-27T01:18:45.035Z,-1.14
2018-12-27T01:21:13.692Z,-1.00
2018-12-27T01:23:42.312Z,-0.98
2018-12-27T01:26:10.975Z,-0.96
2018-12-27T01:28:39.591Z,-1.01
2018-12-27T01:31:08.218Z,-1.13
2018-12-27T01:33:56.062Z,-1.27
2018-12-27T01:36:24.685Z,-1.25
2018-12-27T01:41:47.048Z,-1.36
2018-12-27T01:52:17.821Z,-1.37
2018-12-27T01:57:21.051Z,-1.31
2018-12-27T01:59:49.737Z,-1.26
2018-12-27T02:02:18.334Z,-1.28
2018-12-27T02:08:00.049Z,-1.38
2018-12-27T02:13:03.214Z,-1.27
2018-12-27T02:18:06.065Z,-1.43
2018-12-27T02:20:34.700Z,-1.42
2018-12-27T02:23:22.462Z,-1.38
2018-12-27T02:25:51.079Z,-1.47
2018-12-27T02:28:38.921Z,-1.52
2018-12-27T02:31:07.538Z,-1.59
2018-12-27T02:33:36.194Z,-1.44
2018-12-27T02:38:52.454Z,-1.26
2018-12-27T02:41:40.335Z,-1.24
2018-12-27T02:44:08.986Z,-0.98
2018-12-27T02:46:56.826Z,-1.23
2018-12-27T02:49:25.471Z,-0.93
2018-12-27T02:51:54.093Z,-1.25
2018-12-27T02:54:22.711Z,-1.39
2018-12-27T02:56:51.368Z,-1.32
2018-12-27T02:59:19.983Z,-1.23
2018-12-27T03:01:48.651Z,-1.28
2018-12-27T03:04:36.450Z,-1.07
2018-12-27T03:07:05.125Z,-0.98
2018-12-27T03:09:33.743Z,-0.96
2018-12-27T03:12:02.360Z,-0.98
2018-12-27T03:14:31.009Z,-0.86
2018-12-27T03:16:59.623Z,-0.89
2018-12-27T03:19:28.274Z,-0.84
2018-12-27T03:21:56.895Z,-0.86
2018-12-27T03:24:25.557Z,-0.80
2018-12-27T03:27:13.441Z,-0.72
2018-12-27T03:29:42.158Z,-0.84
2018-12-27T03:32:10.767Z,-0.89
2018-12-27T03:34:39.376Z,-0.93
2018-12-27T03:37:08.057Z,-0.93
2018-12-27T03:39:36.678Z,-0.93
2018-12-27T03:42:05.328Z,-0.80
2018-12-27T03:44:33.966Z,-0.83
2018-12-27T03:47:02.626Z,-0.89
2018-12-27T03:49:31.238Z,-0.79
2018-12-27T03:54:34.407Z,-0.73
2018-12-27T03:59:37.863Z,-0.92
2018-12-27T04:02:06.506Z,-0.96
2018-12-27T04:20:18.051Z,-0.87
2018-12-27T04:23:05.808Z,-0.72
2018-12-27T04:25:54.112Z,-0.78
2018-12-27T04:31:36.807Z,-0.76
2018-12-27T04:34:45.297Z,-0.77
2018-12-27T04:37:33.106Z,-0.76
2018-12-27T04:40:21.065Z,-0.81
2018-12-27T04:42:49.687Z,-0.75
2018-12-27T04:45:37.441Z,-0.81
2018-12-27T04:48:05.936Z,-0.96
2018-12-27T04:50:53.796Z,-1.01
2018-12-27T04:53:41.614Z,-0.88
2018-12-27T04:59:04.020Z,-1.20
2018-12-27T05:01:51.865Z,-1.26
2018-12-27T05:04:20.448Z,-1.09
2018-12-27T05:10:01.389Z,-1.30
2018-12-27T05:12:49.080Z,-1.15
2018-12-27T05:15:36.937Z,-1.05
2018-12-27T05:18:05.463Z,-1.03
2018-12-27T05:20:53.196Z,-1.08
2018-12-27T05:23:21.739Z,-0.90
2018-12-27T05:25:50.233Z,-0.81
2018-12-27T05:28:18.810Z,-0.58
2018-12-27T05:31:06.678Z,-0.63
2018-12-27T05:33:35.164Z,-0.80
2018-12-27T05:36:23.043Z,-0.83
2018-12-27T05:38:51.535Z,-0.86
2018-12-27T05:41:20.062Z,-0.92
2018-12-27T05:44:07.808Z,-0.93
2018-12-27T05:46:36.312Z,-0.94
2018-12-27T05:49:04.805Z,-0.97
2018-12-27T05:54:46.815Z,-0.55
2018-12-27T05:57:16.559Z,-0.80
2018-12-27T05:59:45.037Z,-0.39
2018-12-27T06:05:26.028Z,-0.84
2018-12-27T06:08:13.877Z,-0.90
2018-12-27T06:10:42.368Z,-0.86
2018-12-27T06:13:30.292Z,-0.79
2018-12-27T06:16:18.045Z,-0.80
2018-12-27T06:18:46.636Z,-0.69
2018-12-27T06:21:15.132Z,-0.73
2018-12-27T06:24:02.900Z,-0.82
2018-12-27T06:29:18.875Z,-0.72
2018-12-27T06:32:06.486Z,-0.84
2018-12-27T06:34:41.391Z,-0.86
2018-12-27T06:37:24.651Z,-0.77
2018-12-27T06:42:27.475Z,-0.81
2018-12-27T06:48:11.501Z,-0.67
2018-12-27T06:50:40.002Z,-0.76
2018-12-27T06:53:08.537Z,-0.84
2018-12-27T06:55:56.213Z,-0.78
2018-12-27T06:58:43.942Z,-0.98
2018-12-27T07:04:38.664Z,-0.76
2018-12-27T07:10:26.584Z,-0.74
2018-12-27T07:12:55.094Z,-0.64
2018-12-27T07:15:23.584Z,-0.65
2018-12-27T07:18:11.301Z,-0.90
2018-12-27T07:20:39.792Z,-0.86
2018-12-27T07:23:08.332Z,-0.85
2018-12-27T07:25:36.832Z,-0.87
2018-12-27T07:30:59.317Z,-0.74
2018-12-27T07:36:20.805Z,-0.72
2018-12-27T07:39:08.576Z,-1.13
2018-12-27T07:41:37.069Z,-0.98
2018-12-27T07:47:18.626Z,-1.03
2018-12-27T07:52:41.149Z,-0.65
2018-12-27T07:55:29.027Z,-0.65
2018-12-27T07:58:16.833Z,-0.73
2018-12-27T08:01:04.698Z,-0.51
2018-12-27T08:03:33.193Z,-0.66
2018-12-27T08:06:20.995Z,-0.70
2018-12-27T08:08:49.497Z,-0.82
2018-12-27T08:14:30.317Z,-0.54
2018-12-27T08:16:58.851Z,0.01
2018-12-27T08:19:46.767Z,-0.17
2018-12-27T08:22:34.465Z,-0.26
2018-12-27T08:25:03.032Z,-0.70
2018-12-27T08:27:31.525Z,-0.81
2018-12-27T08:30:19.457Z,-0.49
2018-12-27T08:32:47.952Z,-0.01
2018-12-27T08:35:16.476Z,-0.45
2018-12-27T08:40:53.600Z,-0.94
2018-12-27T08:46:37.068Z,-0.87
2018-12-27T08:49:05.569Z,-1.02
2018-12-27T08:51:34.200Z,-0.99
2018-12-27T08:54:22.035Z,-1.02
2018-12-27T08:57:09.819Z,-1.00
2018-12-27T08:59:38.311Z,-0.94
2018-12-27T09:02:06.838Z,-0.93
2018-12-27T09:04:54.654Z,-0.75
2018-12-27T09:07:23.192Z,-0.35
2018-12-27T09:10:11.001Z,-0.62
2018-12-27T09:12:58.864Z,-0.68
2018-12-27T09:15:27.360Z,-0.53
2018-12-27T09:17:55.873Z,-0.60
2018-12-27T09:20:43.751Z,-0.15
2018-12-27T09:26:24.600Z,-0.19
2018-12-27T09:29:12.531Z,-0.51
2018-12-27T09:31:41.024Z,-0.64
2018-12-27T09:34:28.815Z,-0.54
2018-12-27T09:37:16.523Z,-0.38
2018-12-27T09:39:45.057Z,-0.48
2018-12-27T09:42:32.887Z,-0.51
2018-12-27T09:45:01.444Z,-0.41
2018-12-27T09:47:49.204Z,-0.35
2018-12-27T09:50:37.045Z,-0.35
2018-12-27T09:53:24.726Z,-0.47
2018-12-27T09:59:06.041Z,-0.68
2018-12-27T10:01:53.806Z,-0.60
2018-12-27T10:04:22.296Z,-0.53
2018-12-27T10:09:43.610Z,-0.32
2018-12-27T10:12:12.135Z,-0.46
2018-12-27T10:14:40.629Z,-0.34
2018-12-27T10:17:28.268Z,-0.48
2018-12-27T10:19:56.760Z,-0.39
2018-12-27T10:22:44.645Z,-0.39
2018-12-27T10:25:13.141Z,-0.35
2018-12-27T10:28:01.052Z,-0.43
2018-12-27T10:30:48.752Z,-0.34
2018-12-27T10:33:36.544Z,-0.26
2018-12-27T10:36:24.167Z,-0.15
2018-12-27T10:39:32.605Z,-0.88
2018-12-27T10:42:01.108Z,-0.47
2018-12-27T10:47:41.674Z,-0.33
2018-12-27T10:50:50.137Z,-0.17
2018-12-27T10:53:18.627Z,-0.04
2018-12-27T10:56:06.500Z,0.23
2018-12-27T10:58:54.245Z,0.10
2018-12-27T11:01:41.895Z,0.03
2018-12-27T11:04:10.388Z,0.02
2018-12-27T11:06:58.098Z,-0.05
2018-12-27T11:09:45.705Z,0.00
2018-12-27T11:12:14.253Z,0.20
2018-12-27T11:14:42.751Z,0.16
2018-12-27T11:17:11.250Z,0.25
2018-12-27T11:19:59.155Z,0.33
2018-12-27T11:22:27.646Z,0.18
2018-12-27T11:27:54.879Z,0.42
2018-12-27T11:30:42.594Z,0.37
2018-12-27T11:33:11.078Z,0.34
2018-12-27T11:35:39.561Z,0.38
2018-12-27T11:38:08.158Z,0.21
2018-12-27T11:43:45.177Z,-0.09
2018-12-27T11:46:32.984Z,0.03
2018-12-27T11:51:54.972Z,0.12
2018-12-27T11:54:42.840Z,-0.17
2018-12-27T11:57:11.336Z,-0.20
2018-12-27T11:59:39.851Z,-0.04
2018-12-27T12:02:31.050Z,0.07
2018-12-27T12:04:57.833Z,-0.08
2018-12-27T12:07:45.760Z,0.12
2018-12-27T12:10:14.247Z,0.33
2018-12-27T12:12:42.747Z,0.37
2018-12-27T12:15:30.605Z,0.38
2018-12-27T12:17:59.108Z,0.37
2018-12-27T12:20:46.870Z,0.46
2018-12-27T12:23:15.359Z,0.42
2018-12-27T12:26:03.099Z,0.46
2018-12-27T12:31:38.363Z,0.53
2018-12-27T12:34:26.053Z,0.63
2018-12-27T12:37:34.492Z,0.69
2018-12-27T12:40:22.227Z,0.66
2018-12-27T12:43:09.991Z,0.85
2018-12-27T12:45:57.795Z,0.69
2018-12-27T12:51:20.218Z,0.67
2018-12-27T12:53:49.257Z,0.70
2018-12-27T12:56:18.047Z,0.76
2018-12-27T12:58:47.500Z,1.14
2018-12-27T13:01:16.201Z,1.10
2018-12-27T13:03:45.118Z,0.72
2018-12-27T13:06:17.918Z,0.73
2018-12-27T13:08:44.402Z,0.74
2018-12-27T13:11:13.349Z,1.20
2018-12-27T13:13:42.134Z,0.98
2018-12-27T13:16:11.136Z,0.91
2018-12-27T13:18:47.095Z,0.72
2018-12-27T13:21:10.289Z,0.81
2018-12-27T13:23:40.055Z,0.84
2018-12-27T13:26:08.689Z,0.96
2018-12-27T13:28:37.287Z,0.82
2018-12-27T13:31:05.768Z,0.88
2018-12-27T13:33:34.673Z,0.85
2018-12-27T13:36:03.635Z,1.07
2018-12-27T13:38:32.433Z,1.09
2018-12-27T13:41:00.922Z,1.05
2018-12-27T13:43:29.920Z,0.89
2018-12-27T13:45:58.921Z,1.03
2018-12-27T13:48:27.789Z,1.34
2018-12-27T13:50:56.951Z,1.07
2018-12-27T13:53:25.771Z,1.14
2018-12-27T13:55:54.395Z,1.25
2018-12-27T13:58:23.216Z,1.09
2018-12-27T14:00:52.082Z,1.05
2018-12-27T14:03:20.574Z,1.04
2018-12-27T14:05:49.423Z,1.23
2018-12-27T14:08:18.899Z,0.98
2018-12-27T14:10:47.916Z,0.93
2018-12-27T14:13:16.864Z,1.05
2018-12-27T14:15:45.805Z,1.03
2018-12-27T14:18:14.457Z,1.17
2018-12-27T14:20:44.486Z,1.04
2018-12-27T14:23:13.284Z,1.15
2018-12-27T14:25:41.777Z,1.30
2018-12-27T14:28:10.611Z,1.61
2018-12-27T14:30:39.313Z,1.50
2018-12-27T14:33:08.116Z,1.43
2018-12-27T14:35:36.642Z,1.22
2018-12-27T14:38:05.201Z,1.19
2018-12-27T14:40:33.725Z,1.03
2018-12-27T14:43:02.394Z,1.22
2018-12-27T14:45:31.375Z,1.26
2018-12-27T14:48:00.188Z,1.34
2018-12-27T14:50:29.131Z,1.22
2018-12-27T14:52:57.687Z,1.21
2018-12-27T14:55:26.708Z,1.15
2018-12-27T14:57:55.505Z,1.21
2018-12-27T15:00:24.140Z,1.04
2018-12-27T15:02:53.032Z,0.95
2018-12-27T15:05:21.664Z,0.88
2018-12-27T15:07:50.511Z,1.18
2018-12-27T15:10:19.064Z,1.03
2018-12-27T15:12:48.031Z,0.93
2018-12-27T15:15:16.649Z,0.99
2018-12-27T15:17:45.209Z,0.87
2018-12-27T15:20:14.109Z,1.38
2018-12-27T15:22:42.951Z,1.29
2018-12-27T15:25:12.150Z,1.35
2018-12-27T15:27:40.969Z,1.23
2018-12-27T15:30:09.836Z,1.13
2018-12-27T15:32:38.773Z,1.05
2018-12-27T15:35:07.629Z,1.37
2018-12-27T15:37:36.700Z,1.18
2018-12-27T15:40:06.045Z,1.23
2018-12-27T15:42:35.018Z,1.21
2018-12-27T15:45:04.105Z,1.07
2018-12-27T15:47:32.595Z,1.00
2018-12-27T15:50:01.219Z,1.42
2018-12-27T15:52:29.776Z,1.03
2018-12-27T15:54:58.598Z,0.98
2018-12-27T15:57:27.641Z,0.86
2018-12-27T15:59:56.513Z,0.83
2018-12-27T16:02:25.427Z,0.85
2018-12-27T16:04:53.989Z,0.85
2018-12-27T16:07:22.804Z,0.81
2018-12-27T16:09:51.715Z,0.83
2018-12-27T16:12:20.258Z,0.65
2018-12-27T16:14:48.905Z,0.59
2018-12-27T16:17:17.382Z,0.45
2018-12-27T16:19:46.371Z,0.51
2018-12-27T16:22:14.943Z,0.67
2018-12-27T16:24:43.641Z,0.71
2018-12-27T16:27:12.542Z,0.48
2018-12-27T16:29:41.105Z,0.39
2018-12-27T16:32:09.951Z,0.35
2018-12-27T16:34:38.750Z,0.45
2018-12-27T16:37:09.180Z,0.45
2018-12-27T16:39:38.349Z,0.52
2018-12-27T16:42:06.916Z,0.72
2018-12-27T16:44:35.852Z,0.46
2018-12-27T16:47:04.500Z,0.65
2018-12-27T16:49:33.572Z,0.73
2018-12-27T16:52:02.506Z,0.75
2018-12-27T16:54:31.453Z,0.80
2018-12-27T16:57:00.054Z,0.66
2018-12-27T16:59:28.686Z,0.75
2018-12-27T17:01:57.711Z,0.56
2018-12-27T17:04:26.589Z,0.58
2018-12-27T17:06:55.470Z,0.35
2018-12-27T17:09:24.065Z,0.62
2018-12-27T17:11:52.937Z,0.48
2018-12-27T17:14:21.893Z,0.46
2018-12-27T17:16:50.743Z,0.50
2018-12-27T17:19:19.303Z,0.49
2018-12-27T17:21:48.299Z,0.55
2018-12-27T17:24:17.107Z,0.42
2018-12-27T17:26:45.981Z,0.62
2018-12-27T17:29:14.548Z,0.94
2018-12-27T17:31:43.552Z,0.90
2018-12-27T17:34:12.399Z,0.67
2018-12-27T17:36:41.243Z,0.57
2018-12-27T17:39:10.253Z,0.61
2018-12-27T17:41:39.206Z,0.73
2018-12-27T17:44:07.696Z,0.79
2018-12-27T17:46:36.693Z,0.74
2018-12-27T17:49:05.567Z,0.79
2018-12-27T17:51:34.406Z,0.90
2018-12-27T17:54:02.909Z,0.69
2018-12-27T17:56:31.948Z,0.77
2018-12-27T17:59:00.787Z,0.67
2018-12-27T18:01:29.592Z,0.57
2018-12-27T18:03:58.805Z,0.48
2018-12-27T18:06:27.394Z,0.51
2018-12-27T18:08:55.923Z,0.61
2018-12-27T18:11:24.514Z,0.64
2018-12-27T18:13:53.309Z,0.66
2018-12-27T18:16:22.127Z,0.93
2018-12-27T18:18:51.070Z,0.85
2018-12-27T18:21:19.640Z,0.81
2018-12-27T18:23:48.477Z,0.97
2018-12-27T18:26:17.281Z,1.15
2018-12-27T18:28:46.406Z,1.04
2018-12-27T18:31:14.909Z,0.88
2018-12-27T18:33:43.473Z,0.81
2018-12-27T18:36:12.142Z,0.87
2018-12-27T18:38:40.947Z,1.01
2018-12-27T18:41:09.611Z,1.01
2018-12-27T18:43:38.101Z,0.99
2018-12-27T18:46:06.659Z,0.97
2018-12-27T18:48:35.572Z,1.14
2018-12-27T18:51:04.146Z,1.07
2018-12-27T18:53:33.051Z,1.08
2018-12-27T18:56:01.865Z,1.08
2018-12-27T18:58:30.753Z,1.03
2018-12-27T19:00:59.346Z,1.00
2018-12-27T19:03:27.835Z,1.06
2018-12-27T19:05:56.800Z,1.00
2018-12-27T19:08:25.359Z,1.02
2018-12-27T19:11:30.076Z,0.97
2018-12-27T19:13:58.874Z,0.97
2018-12-27T19:16:27.674Z,0.99
2018-12-27T19:18:56.274Z,0.94
2018-12-27T19:21:24.777Z,1.00
2018-12-27T19:23:53.639Z,1.04
2018-12-27T19:26:22.492Z,1.07
2018-12-27T19:28:51.377Z,1.04
2018-12-27T19:31:20.343Z,0.79
2018-12-27T19:33:49.250Z,0.64
2018-12-27T19:36:17.814Z,0.62
2018-12-27T19:38:46.342Z,0.85
2018-12-27T19:41:15.145Z,0.57
2018-12-27T19:43:44.048Z,0.55
2018-12-27T19:46:12.682Z,0.80
2018-12-27T19:48:41.298Z,0.89
2018-12-27T19:51:09.962Z,0.62
2018-12-27T19:53:38.931Z,0.59
2018-12-27T19:56:07.795Z,0.64
2018-12-27T19:58:36.686Z,0.76
2018-12-27T20:01:05.697Z,0.67
2018-12-27T20:03:34.314Z,0.73
2018-12-27T20:06:02.920Z,0.79
2018-12-27T20:08:31.518Z,0.81
2018-12-27T20:11:00.297Z,0.95
2018-12-27T20:13:29.353Z,0.92
2018-12-27T20:15:57.986Z,0.91
2018-12-27T20:18:26.757Z,0.92
2018-12-27T20:20:55.797Z,0.98
2018-12-27T20:23:24.920Z,1.10
2018-12-27T20:25:53.720Z,1.09
2018-12-27T20:28:22.589Z,0.95
2018-12-27T20:30:51.703Z,0.88
2018-12-27T20:33:20.807Z,0.92
2018-12-27T20:35:49.568Z,0.92
2018-12-27T20:38:18.323Z,0.89
2018-12-27T20:40:47.107Z,0.90
2018-12-27T20:43:15.848Z,0.88
2018-12-27T20:45:44.721Z,0.91
2018-12-27T20:48:13.835Z,0.97
2018-12-27T20:50:42.938Z,0.99
2018-12-27T20:53:11.709Z,0.99
2018-12-27T20:55:40.773Z,1.00
2018-12-27T20:58:09.578Z,1.01
2018-12-27T21:00:38.312Z,1.06
2018-12-27T21:03:07.382Z,1.00
2018-12-27T21:05:36.463Z,0.80
2018-12-27T21:08:05.647Z,0.66
2018-12-27T21:10:34.737Z,0.53
2018-12-27T21:13:03.752Z,0.64
2018-12-27T21:15:32.700Z,0.71
2018-12-27T21:18:01.765Z,0.79
2018-12-27T21:20:30.619Z,0.89
2018-12-27T21:22:59.626Z,1.04
2018-12-27T21:25:28.578Z,0.92
2018-12-27T21:27:57.594Z,0.98
2018-12-27T21:30:26.819Z,0.93
2018-12-27T21:32:55.921Z,0.89
2018-12-27T21:35:24.999Z,0.95
2018-12-27T21:37:53.900Z,0.75
2018-12-27T21:40:22.633Z,0.79
2018-12-27T21:42:51.620Z,0.88
2018-12-27T21:45:20.352Z,1.02
2018-12-27T21:47:48.955Z,0.96
2018-12-27T21:50:17.826Z,0.84
2018-12-27T21:52:46.393Z,0.77
2018-12-27T21:55:14.912Z,0.79
2018-12-27T21:57:43.716Z,0.64
2018-12-27T22:00:12.829Z,0.57
2018-12-27T22:02:41.334Z,0.60
2018-12-27T22:05:10.234Z,0.75
2018-12-27T22:07:38.840Z,0.84
2018-12-27T22:10:08.291Z,0.67
2018-12-27T22:12:37.059Z,0.74
2018-12-27T22:15:05.868Z,0.79
2018-12-27T22:17:34.894Z,0.80
2018-12-27T22:20:03.491Z,0.81
2018-12-27T22:22:32.561Z,0.82
2018-12-27T22:25:01.634Z,0.82
2018-12-27T22:27:30.333Z,0.86
2018-12-27T22:29:58.816Z,0.88
2018-12-27T22:32:27.652Z,0.93
2018-12-27T22:34:56.181Z,0.81
2018-12-27T22:37:24.776Z,0.84
2018-12-27T22:39:53.362Z,0.95
2018-12-27T22:42:21.974Z,0.88
2018-12-27T22:44:50.500Z,0.87
2018-12-27T22:47:19.297Z,0.91
2018-12-27T22:49:48.013Z,0.86
2018-12-27T22:52:16.902Z,0.87
2018-12-27T22:54:45.859Z,0.98
2018-12-27T22:57:14.768Z,1.02
2018-12-27T22:59:43.783Z,0.98
2018-12-27T23:02:12.773Z,0.98
2018-12-27T23:04:41.662Z,0.96
2018-12-27T23:07:10.607Z,0.99
2018-12-27T23:09:39.488Z,0.89
2018-12-27T23:12:08.118Z,0.86
2018-12-27T23:14:37.092Z,0.93
2018-12-27T23:17:06.191Z,0.83
2018-12-27T23:19:35.199Z,0.85
2018-12-27T23:22:03.757Z,0.79
2018-12-27T23:24:32.574Z,0.81
2018-12-27T23:27:01.092Z,0.86
2018-12-27T23:29:29.657Z,1.11
2018-12-27T23:31:58.187Z,0.87
2018-12-27T23:34:26.993Z,0.76
2018-12-27T23:36:55.771Z,0.81
2018-12-27T23:39:24.680Z,0.81
2018-12-27T23:41:53.487Z,0.78
2018-12-27T23:44:22.413Z,0.75
2018-12-27T23:46:51.055Z,0.80
2018-12-27T23:49:19.613Z,0.75
2018-12-27T23:51:48.528Z,0.74
2018-12-27T23:54:17.097Z,0.82
2018-12-27T23:56:45.687Z,1.07
2018-12-27T23:59:14.604Z,0.99
